sensor_id;sensor_type;location;lat;lon;timestamp;pressure;altitude;pressure_sealevel;temperature;humidity
60212;BME280;46079;48.686;15.598;2023-03-16T00:00:10;100200.47;;;20.52;39.69
60212;BME280;46079;48.686;15.598;2023-03-16T00:02:39;100216.13;;;20.53;39.62
60212;BME280;46079;48.686;15.598;2023-03-16T00:05:06;100215.38;;;20.51;39.41
60212;BME280;46079;48.686;15.598;2023-03-16T00:07:32;100224.13;;;20.52;39.53
60212;BME280;46079;48.686;15.598;2023-03-16T00:09:58;100224.13;;;20.52;39.73
60212;BME280;46079;48.686;15.598;2023-03-16T00:12:24;100225.88;;;20.51;39.55
60212;BME280;46079;48.686;15.598;2023-03-16T00:14:50;100224.13;;;20.52;39.61
60212;BME280;46079;48.686;15.598;2023-03-16T00:17:18;100222.59;;;20.49;39.51
60212;BME280;46079;48.686;15.598;2023-03-16T00:19:54;100231.28;;;20.50;39.78
60212;BME280;46079;48.686;15.598;2023-03-16T00:22:26;100234.91;;;20.49;39.70
60212;BME280;46079;48.686;15.598;2023-03-16T00:24:54;100232.94;;;20.51;39.75
60212;BME280;46079;48.686;15.598;2023-03-16T00:27:20;100232.94;;;20.51;39.55
60212;BME280;46079;48.686;15.598;2023-03-16T00:29:47;100238.34;;;20.49;39.57
60212;BME280;46079;48.686;15.598;2023-03-16T00:32:21;100240.16;;;20.49;39.64
60212;BME280;46079;48.686;15.598;2023-03-16T00:34:47;100233.22;;;20.48;39.48
60212;BME280;46079;48.686;15.598;2023-03-16T00:37:15;100243.72;;;20.48;39.69
60212;BME280;46079;48.686;15.598;2023-03-16T00:39:41;100240.16;;;20.49;39.54
60212;BME280;46079;48.686;15.598;2023-03-16T00:42:09;100242.78;;;20.49;39.69
60212;BME280;46079;48.686;15.598;2023-03-16T00:44:35;100234.91;;;20.49;39.63
60212;BME280;46079;48.686;15.598;2023-03-16T00:47:02;100243.59;;;20.49;39.88
60212;BME280;46079;48.686;15.598;2023-03-16T00:49:27;100246.34;;;20.48;39.88
60212;BME280;46079;48.686;15.598;2023-03-16T00:51:53;100248.16;;;20.47;40.06
60212;BME280;46079;48.686;15.598;2023-03-16T00:54:18;100240.28;;;20.47;39.89
60212;BME280;46079;48.686;15.598;2023-03-16T00:56:44;100241.09;;;20.48;39.98
60212;BME280;46079;48.686;15.598;2023-03-16T00:59:10;100236.00;;;20.46;40.04
60212;BME280;46079;48.686;15.598;2023-03-16T01:01:37;100240.28;;;20.47;39.90
60212;BME280;46079;48.686;15.598;2023-03-16T01:04:03;100242.06;;;20.47;39.93
60212;BME280;46079;48.686;15.598;2023-03-16T01:06:28;100243.72;;;20.48;39.92
60212;BME280;46079;48.686;15.598;2023-03-16T01:08:53;100244.69;;;20.47;40.04
60212;BME280;46079;48.686;15.598;2023-03-16T01:11:21;100257.00;;;20.46;40.05
60212;BME280;46079;48.686;15.598;2023-03-16T01:13:48;100260.47;;;20.47;40.01
60212;BME280;46079;48.686;15.598;2023-03-16T01:16:15;100256.03;;;20.47;40.09
60212;BME280;46079;48.686;15.598;2023-03-16T01:18:43;100255.22;;;20.47;40.05
60212;BME280;46079;48.686;15.598;2023-03-16T01:21:09;100261.41;;;20.46;40.05
60212;BME280;46079;48.686;15.598;2023-03-16T01:23:38;100259.63;;;20.46;39.99
60212;BME280;46079;48.686;15.598;2023-03-16T01:26:04;100261.28;;;20.47;40.00
60212;BME280;46079;48.686;15.598;2023-03-16T01:28:31;100265.72;;;20.47;40.04
60212;BME280;46079;48.686;15.598;2023-03-16T01:31:06;100266.66;;;20.46;39.96
60212;BME280;46079;48.686;15.598;2023-03-16T01:33:32;100273.59;;;20.47;40.23
60212;BME280;46079;48.686;15.598;2023-03-16T01:36:04;100269.28;;;20.46;39.94
60212;BME280;46079;48.686;15.598;2023-03-16T01:38:30;100266.66;;;20.46;40.20
60212;BME280;46079;48.686;15.598;2023-03-16T01:40:56;100260.59;;;20.45;40.06
60212;BME280;46079;48.686;15.598;2023-03-16T01:43:24;100265.84;;;20.45;40.12
60212;BME280;46079;48.686;15.598;2023-03-16T01:48:43;100265.00;;;20.44;40.09
60212;BME280;46079;48.686;15.598;2023-03-16T01:51:14;100266.66;;;20.46;40.12
60212;BME280;46079;48.686;15.598;2023-03-16T01:53:43;100270.25;;;20.44;40.15
60212;BME280;46079;48.686;15.598;2023-03-16T01:56:12;100277.19;;;20.46;40.04
60212;BME280;46079;48.686;15.598;2023-03-16T01:58:38;100273.72;;;20.45;40.35
60212;BME280;46079;48.686;15.598;2023-03-16T02:01:04;100275.53;;;20.44;40.06
60212;BME280;46079;48.686;15.598;2023-03-16T02:03:30;100275.53;;;20.44;39.91
60212;BME280;46079;48.686;15.598;2023-03-16T02:06:11;100275.41;;;20.46;40.08
60212;BME280;46079;48.686;15.598;2023-03-16T02:08:39;100274.53;;;20.46;40.26
60212;BME280;46079;48.686;15.598;2023-03-16T02:11:08;100271.91;;;20.46;40.16
60212;BME280;46079;48.686;15.598;2023-03-16T02:13:34;100277.19;;;20.46;39.99
60212;BME280;46079;48.686;15.598;2023-03-16T02:16:02;100277.19;;;20.46;40.07
60212;BME280;46079;48.686;15.598;2023-03-16T02:18:29;100272.91;;;20.44;40.25
60212;BME280;46079;48.686;15.598;2023-03-16T02:23:26;100277.19;;;20.46;40.25
60212;BME280;46079;48.686;15.598;2023-03-16T02:26:19;100282.44;;;20.46;40.14
60212;BME280;46079;48.686;15.598;2023-03-16T02:31:18;100283.16;;;20.48;40.19
60212;BME280;46079;48.686;15.598;2023-03-16T02:33:47;100289.38;;;20.47;40.44
60212;BME280;46079;48.686;15.598;2023-03-16T02:36:14;100281.50;;;20.47;40.37
60212;BME280;46079;48.686;15.598;2023-03-16T02:38:40;100285.78;;;20.48;40.60
60212;BME280;46079;48.686;15.598;2023-03-16T02:41:17;100292.00;;;20.47;40.41
60212;BME280;46079;48.686;15.598;2023-03-16T02:43:51;100289.38;;;20.47;40.06
60212;BME280;46079;48.686;15.598;2023-03-16T02:46:20;100296.28;;;20.48;40.38
60212;BME280;46079;48.686;15.598;2023-03-16T02:51:30;100306.78;;;20.48;40.32
60212;BME280;46079;48.686;15.598;2023-03-16T02:53:57;100311.09;;;20.49;40.42
60212;BME280;46079;48.686;15.598;2023-03-16T02:56:23;100306.69;;;20.49;40.37
60212;BME280;46079;48.686;15.598;2023-03-16T02:58:48;100299.72;;;20.48;40.58
60212;BME280;46079;48.686;15.598;2023-03-16T03:01:14;100298.91;;;20.48;40.52
60212;BME280;46079;48.686;15.598;2023-03-16T03:03:39;100308.47;;;20.49;40.40
60212;BME280;46079;48.686;15.598;2023-03-16T03:06:05;100330.31;;;20.49;40.39
60212;BME280;46079;48.686;15.598;2023-03-16T03:08:30;100335.59;;;20.49;40.50
60212;BME280;46079;48.686;15.598;2023-03-16T03:10:57;100338.06;;;20.51;40.46
60212;BME280;46079;48.686;15.598;2023-03-16T03:13:23;100336.25;;;20.51;40.37
60212;BME280;46079;48.686;15.598;2023-03-16T03:15:48;100336.41;;;20.50;40.42
60212;BME280;46079;48.686;15.598;2023-03-16T03:18:14;100339.88;;;20.50;40.49
60212;BME280;46079;48.686;15.598;2023-03-16T03:20:39;100345.00;;;20.52;40.46
60212;BME280;46079;48.686;15.598;2023-03-16T03:23:05;100351.09;;;20.52;40.36
60212;BME280;46079;48.686;15.598;2023-03-16T03:25:30;100350.25;;;20.52;40.29
60212;BME280;46079;48.686;15.598;2023-03-16T03:27:59;100354.53;;;20.53;40.54
60212;BME280;46079;48.686;15.598;2023-03-16T03:30:27;100355.50;;;20.52;40.55
60212;BME280;46079;48.686;15.598;2023-03-16T03:32:53;100355.50;;;20.52;40.38
60212;BME280;46079;48.686;15.598;2023-03-16T03:35:19;100364.13;;;20.54;40.38
60212;BME280;46079;48.686;15.598;2023-03-16T03:37:45;100358.84;;;20.54;40.44
60212;BME280;46079;48.686;15.598;2023-03-16T03:40:13;100361.50;;;20.54;40.21
60212;BME280;46079;48.686;15.598;2023-03-16T03:42:39;100365.81;;;20.55;40.51
60212;BME280;46079;48.686;15.598;2023-03-16T03:45:05;100364.13;;;20.54;40.42
60212;BME280;46079;48.686;15.598;2023-03-16T03:47:32;100362.34;;;20.54;40.33
60212;BME280;46079;48.686;15.598;2023-03-16T03:49:57;100377.97;;;20.56;40.45
60212;BME280;46079;48.686;15.598;2023-03-16T03:52:23;100374.41;;;20.57;40.61
60212;BME280;46079;48.686;15.598;2023-03-16T03:54:48;100371.88;;;20.55;40.39
60212;BME280;46079;48.686;15.598;2023-03-16T03:57:14;100374.41;;;20.57;40.43
60212;BME280;46079;48.686;15.598;2023-03-16T03:59:39;100374.41;;;20.57;40.34
60212;BME280;46079;48.686;15.598;2023-03-16T04:02:11;100377.72;;;20.59;40.37
60212;BME280;46079;48.686;15.598;2023-03-16T04:04:37;100376.06;;;20.58;40.54
60212;BME280;46079;48.686;15.598;2023-03-16T04:07:03;100382.97;;;20.59;40.45
60212;BME280;46079;48.686;15.598;2023-03-16T04:09:29;100381.31;;;20.58;40.58
60212;BME280;46079;48.686;15.598;2023-03-16T04:12:02;100376.88;;;20.58;40.24
60212;BME280;46079;48.686;15.598;2023-03-16T04:14:28;100384.66;;;20.60;40.41
60212;BME280;46079;48.686;15.598;2023-03-16T04:16:54;100379.41;;;20.60;40.40
60212;BME280;46079;48.686;15.598;2023-03-16T04:19:21;100386.31;;;20.61;40.53
60212;BME280;46079;48.686;15.598;2023-03-16T04:21:47;100386.31;;;20.61;40.66
60212;BME280;46079;48.686;15.598;2023-03-16T04:24:12;100393.22;;;20.62;40.58
60212;BME280;46079;48.686;15.598;2023-03-16T04:26:40;100393.22;;;20.62;40.64
60212;BME280;46079;48.686;15.598;2023-03-16T04:29:05;100389.66;;;20.63;40.64
60212;BME280;46079;48.686;15.598;2023-03-16T04:31:31;100396.56;;;20.64;40.61
60212;BME280;46079;48.686;15.598;2023-03-16T04:33:56;100401.81;;;20.64;40.76
60212;BME280;46079;48.686;15.598;2023-03-16T04:36:22;100394.91;;;20.63;40.63
60212;BME280;46079;48.686;15.598;2023-03-16T04:38:48;100394.91;;;20.63;40.64
60212;BME280;46079;48.686;15.598;2023-03-16T04:41:14;100404.34;;;20.65;40.47
60212;BME280;46079;48.686;15.598;2023-03-16T04:43:39;100412.06;;;20.67;40.48
60212;BME280;46079;48.686;15.598;2023-03-16T04:46:05;100413.88;;;20.67;40.35
60212;BME280;46079;48.686;15.598;2023-03-16T04:48:31;100410.41;;;20.66;40.65
60212;BME280;46079;48.686;15.598;2023-03-16T04:50:57;100412.06;;;20.67;40.66
60212;BME280;46079;48.686;15.598;2023-03-16T04:53:22;100416.41;;;20.68;40.48
60212;BME280;46079;48.686;15.598;2023-03-16T04:55:48;100425.94;;;20.69;40.47
60212;BME280;46079;48.686;15.598;2023-03-16T04:58:14;100425.94;;;20.69;40.54
60212;BME280;46079;48.686;15.598;2023-03-16T05:00:39;100425.94;;;20.69;40.65
60212;BME280;46079;48.686;15.598;2023-03-16T05:03:06;100433.81;;;20.69;40.63
60212;BME280;46079;48.686;15.598;2023-03-16T05:05:32;100432.03;;;20.70;40.52
60212;BME280;46079;48.686;15.598;2023-03-16T05:07:57;100439.78;;;20.71;40.58
60212;BME280;46079;48.686;15.598;2023-03-16T05:10:23;100437.16;;;20.71;40.59
60212;BME280;46079;48.686;15.598;2023-03-16T05:12:48;100446.72;;;20.72;40.65
60212;BME280;46079;48.686;15.598;2023-03-16T05:15:13;100444.06;;;20.72;40.53
60212;BME280;46079;48.686;15.598;2023-03-16T05:17:40;100446.72;;;20.72;40.40
60212;BME280;46079;48.686;15.598;2023-03-16T05:20:10;100452.69;;;20.74;40.22
60212;BME280;46079;48.686;15.598;2023-03-16T05:22:40;100453.63;;;20.73;38.98
60212;BME280;46079;48.686;15.598;2023-03-16T05:25:06;100447.41;;;20.74;38.29
60212;BME280;46079;48.686;15.598;2023-03-16T05:27:31;100451.72;;;20.75;39.59
60212;BME280;46079;48.686;15.598;2023-03-16T05:29:58;100448.13;;;20.76;39.90
60212;BME280;46079;48.686;15.598;2023-03-16T05:32:26;100454.22;;;20.77;39.91
60212;BME280;46079;48.686;15.598;2023-03-16T05:34:51;100464.75;;;20.77;39.80
60212;BME280;46079;48.686;15.598;2023-03-16T05:37:18;100459.47;;;20.77;39.83
60212;BME280;46079;48.686;15.598;2023-03-16T05:39:43;100467.22;;;20.78;39.97
60212;BME280;46079;48.686;15.598;2023-03-16T05:42:09;100463.66;;;20.79;39.92
60212;BME280;46079;48.686;15.598;2023-03-16T05:44:34;100464.47;;;20.80;39.82
60212;BME280;46079;48.686;15.598;2023-03-16T05:47:00;100469.75;;;20.80;40.03
60212;BME280;46079;48.686;15.598;2023-03-16T05:49:25;100467.94;;;20.80;40.03
60212;BME280;46079;48.686;15.598;2023-03-16T05:51:51;100473.09;;;20.82;40.19
60212;BME280;46079;48.686;15.598;2023-03-16T05:54:16;100473.91;;;20.82;40.38
60212;BME280;46079;48.686;15.598;2023-03-16T05:56:42;100480.81;;;20.83;40.13
60212;BME280;46079;48.686;15.598;2023-03-16T05:59:07;100477.38;;;20.83;40.18
60212;BME280;46079;48.686;15.598;2023-03-16T06:01:33;100482.50;;;20.84;40.12
60212;BME280;46079;48.686;15.598;2023-03-16T06:03:58;100482.50;;;20.84;40.45
60212;BME280;46079;48.686;15.598;2023-03-16T06:06:24;100480.72;;;20.85;40.16
60212;BME280;46079;48.686;15.598;2023-03-16T06:08:50;100487.63;;;20.86;40.23
60212;BME280;46079;48.686;15.598;2023-03-16T06:11:15;100497.22;;;20.87;40.09
60212;BME280;46079;48.686;15.598;2023-03-16T06:13:41;100501.34;;;20.90;40.30
60212;BME280;46079;48.686;15.598;2023-03-16T06:16:07;100501.34;;;20.90;38.42
60212;BME280;46079;48.686;15.598;2023-03-16T06:18:33;100496.09;;;20.90;37.48
60212;BME280;46079;48.686;15.598;2023-03-16T06:20:59;100496.94;;;20.90;37.31
60212;BME280;46079;48.686;15.598;2023-03-16T06:23:24;100494.31;;;20.90;37.48
60212;BME280;46079;48.686;15.598;2023-03-16T06:25:50;100500.41;;;20.91;36.93
60212;BME280;46079;48.686;15.598;2023-03-16T06:28:19;100501.22;;;20.91;36.64
60212;BME280;46079;48.686;15.598;2023-03-16T06:30:45;100496.81;;;20.92;36.58
60212;BME280;46079;48.686;15.598;2023-03-16T06:33:10;100501.94;;;20.93;36.14
60212;BME280;46079;48.686;15.598;2023-03-16T06:35:36;100508.03;;;20.94;35.62
60212;BME280;46079;48.686;15.598;2023-03-16T06:38:01;100514.00;;;20.96;36.13
60212;BME280;46079;48.686;15.598;2023-03-16T06:40:27;100516.38;;;20.99;36.01
60212;BME280;46079;48.686;15.598;2023-03-16T06:42:52;100521.66;;;20.99;36.20
60212;BME280;46079;48.686;15.598;2023-03-16T06:45:18;100535.38;;;21.02;36.54
60212;BME280;46079;48.686;15.598;2023-03-16T06:47:46;100539.53;;;21.05;36.33
60212;BME280;46079;48.686;15.598;2023-03-16T06:50:13;100538.56;;;21.06;36.37
60212;BME280;46079;48.686;15.598;2023-03-16T06:52:38;100537.63;;;21.07;36.53
60212;BME280;46079;48.686;15.598;2023-03-16T06:55:04;100536.66;;;21.08;36.43
60212;BME280;46079;48.686;15.598;2023-03-16T06:57:30;100548.88;;;21.09;36.24
60212;BME280;46079;48.686;15.598;2023-03-16T06:59:55;100548.88;;;21.09;36.60
60212;BME280;46079;48.686;15.598;2023-03-16T07:02:21;100546.22;;;21.09;36.73
60212;BME280;46079;48.686;15.598;2023-03-16T07:04:48;100553.97;;;21.10;36.91
60212;BME280;46079;48.686;15.598;2023-03-16T07:07:13;100555.63;;;21.12;36.85
60212;BME280;46079;48.686;15.598;2023-03-16T07:09:39;100550.25;;;21.13;37.02
60212;BME280;46079;48.686;15.598;2023-03-16T07:12:05;100549.28;;;21.14;36.76
60212;BME280;46079;48.686;15.598;2023-03-16T07:14:30;100553.59;;;21.15;36.95
60212;BME280;46079;48.686;15.598;2023-03-16T07:16:56;100556.09;;;21.17;36.76
60212;BME280;46079;48.686;15.598;2023-03-16T07:19:21;100545.56;;;21.17;36.73
60212;BME280;46079;48.686;15.598;2023-03-16T07:21:47;100547.38;;;21.16;36.81
60212;BME280;46079;48.686;15.598;2023-03-16T07:24:13;100549.88;;;21.18;36.79
60212;BME280;46079;48.686;15.598;2023-03-16T07:26:39;100548.09;;;21.18;36.86
60212;BME280;46079;48.686;15.598;2023-03-16T07:29:05;100552.53;;;21.18;36.87
60212;BME280;46079;48.686;15.598;2023-03-16T07:31:32;100550.72;;;21.18;36.72
60212;BME280;46079;48.686;15.598;2023-03-16T07:33:58;100549.75;;;21.19;37.11
60212;BME280;46079;48.686;15.598;2023-03-16T07:36:24;100549.75;;;21.19;36.25
60212;BME280;46079;48.686;15.598;2023-03-16T07:38:49;100554.19;;;21.19;36.60
60212;BME280;46079;48.686;15.598;2023-03-16T07:41:16;100552.38;;;21.19;36.61
60212;BME280;46079;48.686;15.598;2023-03-16T07:43:41;100548.81;;;21.20;36.57
60212;BME280;46079;48.686;15.598;2023-03-16T07:46:09;100557.53;;;21.21;36.68
60212;BME280;46079;48.686;15.598;2023-03-16T07:48:40;100559.19;;;21.22;36.58
60212;BME280;46079;48.686;15.598;2023-03-16T07:51:07;100550.34;;;21.23;36.52
60212;BME280;46079;48.686;15.598;2023-03-16T07:53:33;100560.00;;;21.22;36.65
60212;BME280;46079;48.686;15.598;2023-03-16T07:55:58;100561.69;;;21.23;36.55
60212;BME280;46079;48.686;15.598;2023-03-16T07:58:24;100560.72;;;21.24;36.70
60212;BME280;46079;48.686;15.598;2023-03-16T08:00:49;100556.28;;;21.25;36.59
60212;BME280;46079;48.686;15.598;2023-03-16T08:03:15;100561.44;;;21.26;36.54
60212;BME280;46079;48.686;15.598;2023-03-16T08:05:40;100558.81;;;21.26;36.61
60212;BME280;46079;48.686;15.598;2023-03-16T08:08:06;100557.00;;;21.27;36.42
60212;BME280;46079;48.686;15.598;2023-03-16T08:10:34;100559.38;;;21.30;36.69
60212;BME280;46079;48.686;15.598;2023-03-16T08:12:59;100571.59;;;21.31;36.46
60212;BME280;46079;48.686;15.598;2023-03-16T08:15:26;100570.63;;;21.32;36.62
60212;BME280;46079;48.686;15.598;2023-03-16T08:17:51;100578.38;;;21.33;36.73
60212;BME280;46079;48.686;15.598;2023-03-16T08:20:17;100574.78;;;21.35;36.58
60212;BME280;46079;48.686;15.598;2023-03-16T08:22:43;100580.75;;;21.37;36.77
60212;BME280;46079;48.686;15.598;2023-03-16T08:25:10;100574.56;;;21.38;36.39
60212;BME280;46079;48.686;15.598;2023-03-16T08:27:37;100583.16;;;21.40;36.42
60212;BME280;46079;48.686;15.598;2023-03-16T08:30:04;100584.81;;;21.41;36.28
60212;BME280;46079;48.686;15.598;2023-03-16T08:32:32;100595.34;;;21.41;36.17
60212;BME280;46079;48.686;15.598;2023-03-16T08:34:57;100590.66;;;21.44;36.40
60212;BME280;46079;48.686;15.598;2023-03-16T08:37:25;100591.53;;;21.45;36.42
60212;BME280;46079;48.686;15.598;2023-03-16T08:39:51;100590.53;;;21.46;36.25
60212;BME280;46079;48.686;15.598;2023-03-16T08:42:17;100593.19;;;21.46;36.15
60212;BME280;46079;48.686;15.598;2023-03-16T08:44:44;100593.06;;;21.47;36.19
60212;BME280;46079;48.686;15.598;2023-03-16T08:47:09;100596.53;;;21.48;36.29
60212;BME280;46079;48.686;15.598;2023-03-16T08:49:36;100596.53;;;21.48;36.24
60212;BME280;46079;48.686;15.598;2023-03-16T08:52:02;100594.72;;;21.48;36.24
60212;BME280;46079;48.686;15.598;2023-03-16T08:54:27;100594.56;;;21.50;36.17
60212;BME280;46079;48.686;15.598;2023-03-16T08:56:53;100597.22;;;21.50;36.19
60212;BME280;46079;48.686;15.598;2023-03-16T08:59:19;100589.31;;;21.50;36.18
60212;BME280;46079;48.686;15.598;2023-03-16T09:01:44;100592.81;;;21.50;36.20
60212;BME280;46079;48.686;15.598;2023-03-16T09:04:09;100591.94;;;21.50;36.25
60212;BME280;46079;48.686;15.598;2023-03-16T09:06:37;100605.09;;;21.50;36.16
60212;BME280;46079;48.686;15.598;2023-03-16T09:09:03;100595.44;;;21.50;36.30
60212;BME280;46079;48.686;15.598;2023-03-16T09:11:29;100595.44;;;21.50;36.33
60212;BME280;46079;48.686;15.598;2023-03-16T09:13:58;100599.84;;;21.50;36.26
60212;BME280;46079;48.686;15.598;2023-03-16T09:16:24;100599.84;;;21.50;36.14
60212;BME280;46079;48.686;15.598;2023-03-16T09:18:51;100597.22;;;21.50;36.19
60212;BME280;46079;48.686;15.598;2023-03-16T09:21:16;100599.00;;;21.49;36.32
60212;BME280;46079;48.686;15.598;2023-03-16T09:23:42;100605.09;;;21.50;36.29
60212;BME280;46079;48.686;15.598;2023-03-16T09:26:08;100602.63;;;21.48;36.32
60212;BME280;46079;48.686;15.598;2023-03-16T09:28:35;100601.78;;;21.48;36.22
60212;BME280;46079;48.686;15.598;2023-03-16T09:31:03;100600.97;;;21.47;36.44
60212;BME280;46079;48.686;15.598;2023-03-16T09:33:29;100605.38;;;21.47;36.19
60212;BME280;46079;48.686;15.598;2023-03-16T09:35:56;100600.09;;;21.47;36.33
60212;BME280;46079;48.686;15.598;2023-03-16T09:38:23;100605.50;;;21.45;36.28
60212;BME280;46079;48.686;15.598;2023-03-16T09:40:58;100605.38;;;21.47;36.41
60212;BME280;46079;48.686;15.598;2023-03-16T09:43:46;100597.63;;;21.45;36.45
60212;BME280;46079;48.686;15.598;2023-03-16T09:46:29;100595.94;;;21.44;36.26
60212;BME280;46079;48.686;15.598;2023-03-16T09:48:58;100599.41;;;21.45;36.45
60212;BME280;46079;48.686;15.598;2023-03-16T09:54:22;100594.28;;;21.43;36.40
60212;BME280;46079;48.686;15.598;2023-03-16T09:56:51;100597.88;;;21.42;36.49
60212;BME280;46079;48.686;15.598;2023-03-16T09:59:18;100598.69;;;21.43;36.56
60212;BME280;46079;48.686;15.598;2023-03-16T10:01:59;100597.00;;;21.42;36.66
60212;BME280;46079;48.686;15.598;2023-03-16T10:09:56;100590.09;;;21.41;36.88
60212;BME280;46079;48.686;15.598;2023-03-16T10:12:29;100598.97;;;21.40;36.62
60212;BME280;46079;48.686;15.598;2023-03-16T10:15:10;100593.69;;;21.40;36.71
60212;BME280;46079;48.686;15.598;2023-03-16T10:17:39;100592.88;;;21.39;36.72
60212;BME280;46079;48.686;15.598;2023-03-16T10:20:12;100599.06;;;21.38;36.62
60212;BME280;46079;48.686;15.598;2023-03-16T10:22:43;100598.25;;;21.38;36.64
60212;BME280;46079;48.686;15.598;2023-03-16T10:25:24;100603.50;;;21.38;36.56
60212;BME280;46079;48.686;15.598;2023-03-16T10:27:51;100596.56;;;21.37;36.44
60212;BME280;46079;48.686;15.598;2023-03-16T10:30:26;100603.59;;;21.36;36.60
60212;BME280;46079;48.686;15.598;2023-03-16T10:32:54;100593.94;;;21.37;36.53
60212;BME280;46079;48.686;15.598;2023-03-16T10:37:46;100603.59;;;21.36;36.59
60212;BME280;46079;48.686;15.598;2023-03-16T10:40:13;100594.88;;;21.36;36.58
60212;BME280;46079;48.686;15.598;2023-03-16T10:42:39;100590.59;;;21.35;36.67
60212;BME280;46079;48.686;15.598;2023-03-16T10:45:22;100594.88;;;21.36;36.65
60212;BME280;46079;48.686;15.598;2023-03-16T10:47:48;100595.00;;;21.34;36.50
60212;BME280;46079;48.686;15.598;2023-03-16T10:50:14;100594.16;;;21.33;36.58
60212;BME280;46079;48.686;15.598;2023-03-16T10:52:47;100592.50;;;21.32;36.52
60212;BME280;46079;48.686;15.598;2023-03-16T10:57:47;100576.72;;;21.32;37.07
60212;BME280;46079;48.686;15.598;2023-03-16T11:00:16;100584.59;;;21.32;36.96
60212;BME280;46079;48.686;15.598;2023-03-16T11:02:49;100587.22;;;21.32;36.80
60212;BME280;46079;48.686;15.598;2023-03-16T11:10:29;100582.13;;;21.31;36.98
60212;BME280;46079;48.686;15.598;2023-03-16T11:13:01;100584.75;;;21.31;37.39
60212;BME280;46079;48.686;15.598;2023-03-16T11:15:35;100575.16;;;21.30;37.23
60212;BME280;46079;48.686;15.598;2023-03-16T11:18:01;100572.53;;;21.30;37.81
60212;BME280;46079;48.686;15.598;2023-03-16T11:20:29;100575.06;;;21.31;38.13
60212;BME280;46079;48.686;15.598;2023-03-16T11:22:58;100582.22;;;21.29;38.16
60212;BME280;46079;48.686;15.598;2023-03-16T11:25:47;100576.97;;;21.29;38.27
60212;BME280;46079;48.686;15.598;2023-03-16T11:28:36;100569.19;;;21.28;38.57
60212;BME280;46079;48.686;15.598;2023-03-16T11:31:21;100568.97;;;21.31;38.70
60212;BME280;46079;48.686;15.598;2023-03-16T11:33:51;100559.38;;;21.30;38.77
60212;BME280;46079;48.686;15.598;2023-03-16T11:36:39;100573.38;;;21.30;38.88
60212;BME280;46079;48.686;15.598;2023-03-16T11:39:31;100570.72;;;21.30;38.99
60212;BME280;46079;48.686;15.598;2023-03-16T11:44:51;100564.63;;;21.30;39.18
60212;BME280;46079;48.686;15.598;2023-03-16T11:50:16;100555.09;;;21.29;39.27
60212;BME280;46079;48.686;15.598;2023-03-16T11:52:59;100555.91;;;21.29;39.35
60212;BME280;46079;48.686;15.598;2023-03-16T12:03:41;100542.66;;;21.31;39.13
60212;BME280;46079;48.686;15.598;2023-03-16T12:11:45;100538.88;;;21.33;39.34
60212;BME280;46079;48.686;15.598;2023-03-16T12:14:24;100534.34;;;21.36;39.19
60212;BME280;46079;48.686;15.598;2023-03-16T12:17:05;100534.34;;;21.36;39.39
60212;BME280;46079;48.686;15.598;2023-03-16T12:20:04;100536.03;;;21.37;39.20
60212;BME280;46079;48.686;15.598;2023-03-16T12:22:38;100528.03;;;21.38;39.27
60212;BME280;46079;48.686;15.598;2023-03-16T12:25:15;100523.59;;;21.39;39.47
60212;BME280;46079;48.686;15.598;2023-03-16T12:27:42;100522.63;;;21.40;39.30
60212;BME280;46079;48.686;15.598;2023-03-16T12:38:50;100504.06;;;21.41;39.30
60212;BME280;46079;48.686;15.598;2023-03-16T12:41:54;100497.00;;;21.42;39.40
60212;BME280;46079;48.686;15.598;2023-03-16T12:50:28;100505.63;;;21.44;39.34
60212;BME280;46079;48.686;15.598;2023-03-16T12:52:54;100502.97;;;21.44;39.46
60212;BME280;46079;48.686;15.598;2023-03-16T12:58:01;100507.31;;;21.45;39.09
60212;BME280;46079;48.686;15.598;2023-03-16T13:00:41;100487.91;;;21.46;39.22
60212;BME280;46079;48.686;15.598;2023-03-16T13:03:20;100491.50;;;21.45;38.84
60212;BME280;46079;48.686;15.598;2023-03-16T13:05:53;100495.09;;;21.44;38.86
60212;BME280;46079;48.686;15.598;2023-03-16T13:08:20;100484.56;;;21.44;38.90
60212;BME280;46079;48.686;15.598;2023-03-16T13:11:19;100483.72;;;21.43;38.82
60212;BME280;46079;48.686;15.598;2023-03-16T13:14:04;100488.16;;;21.43;38.69
60212;BME280;46079;48.686;15.598;2023-03-16T13:16:33;100485.66;;;21.41;38.56
60212;BME280;46079;48.686;15.598;2023-03-16T13:19:28;100490.91;;;21.41;38.48
60212;BME280;46079;48.686;15.598;2023-03-16T13:24:49;100488.44;;;21.40;38.64
60212;BME280;46079;48.686;15.598;2023-03-16T13:29:56;100488.53;;;21.38;38.55
60212;BME280;46079;48.686;15.598;2023-03-16T13:32:23;100478.13;;;21.37;38.40
60212;BME280;46079;48.686;15.598;2023-03-16T13:34:51;100483.41;;;21.37;38.43
60212;BME280;46079;48.686;15.598;2023-03-16T13:37:19;100485.16;;;21.36;38.45
60212;BME280;46079;48.686;15.598;2023-03-16T13:39:57;100476.44;;;21.36;38.46
60212;BME280;46079;48.686;15.598;2023-03-16T13:42:27;100474.78;;;21.35;38.52
60212;BME280;46079;48.686;15.598;2023-03-16T13:44:54;100482.69;;;21.35;38.59
60212;BME280;46079;48.686;15.598;2023-03-16T13:47:21;100481.88;;;21.34;38.48
60212;BME280;46079;48.686;15.598;2023-03-16T13:49:49;100482.81;;;21.33;38.47
60212;BME280;46079;48.686;15.598;2023-03-16T13:52:30;100472.28;;;21.33;38.49
60212;BME280;46079;48.686;15.598;2023-03-16T13:54:57;100468.81;;;21.32;38.54
60212;BME280;46079;48.686;15.598;2023-03-16T13:57:25;100477.53;;;21.33;38.56